createdAt,value
2017-12-31T00:01:51.493Z,22.57
2017-12-31T00:04:19.576Z,38.90
2017-12-31T00:06:47.150Z,22.27
2017-12-31T00:09:14.726Z,12.17
2017-12-31T00:11:42.369Z,24.33
2017-12-31T00:14:09.941Z,24.93
2017-12-31T00:16:37.560Z,16.17
2017-12-31T00:19:05.129Z,16.40
2017-12-31T00:21:33.052Z,21.70
2017-12-31T00:24:01.398Z,28.17
2017-12-31T00:26:29.902Z,15.17
2017-12-31T00:28:57.517Z,20.77
2017-12-31T00:31:25.159Z,20.03
2017-12-31T00:33:52.781Z,18.33
2017-12-31T00:36:20.365Z,16.23
2017-12-31T00:38:47.996Z,21.57
2017-12-31T00:41:15.585Z,18.30
2017-12-31T00:43:44.232Z,24.27
2017-12-31T00:46:11.810Z,26.63
2017-12-31T00:48:39.384Z,27.40
2017-12-31T00:51:07.796Z,21.83
2017-12-31T00:53:35.387Z,29.27
2017-12-31T00:56:04.579Z,17.43
2017-12-31T00:58:32.171Z,25.07
2017-12-31T01:01:00.968Z,18.07
2017-12-31T01:03:29.313Z,20.83
2017-12-31T01:05:56.883Z,26.57
2017-12-31T01:08:24.509Z,12.20
2017-12-31T01:10:52.101Z,25.97
2017-12-31T01:13:19.717Z,16.97
2017-12-31T01:15:47.318Z,23.67
2017-12-31T01:18:15.364Z,25.43
2017-12-31T01:20:43.161Z,17.77
2017-12-31T01:23:12.232Z,24.57
2017-12-31T01:25:39.865Z,25.10
2017-12-31T01:28:07.454Z,18.60
2017-12-31T01:30:35.093Z,28.60
2017-12-31T01:33:02.673Z,18.27
2017-12-31T01:35:30.296Z,24.87
2017-12-31T01:37:57.867Z,20.97
2017-12-31T01:40:25.759Z,20.40
2017-12-31T01:42:53.347Z,34.70
2017-12-31T01:45:20.919Z,22.60
2017-12-31T01:47:49.305Z,23.70
2017-12-31T01:50:19.600Z,16.70
2017-12-31T01:52:47.233Z,22.33
2017-12-31T01:55:14.829Z,26.40
2017-12-31T01:57:42.888Z,26.23
2017-12-31T02:00:10.715Z,16.13
2017-12-31T02:02:38.289Z,19.73
2017-12-31T02:05:05.939Z,19.17
2017-12-31T02:07:33.508Z,23.67
2017-12-31T02:10:01.403Z,28.83
2017-12-31T02:12:28.988Z,21.80
2017-12-31T02:14:56.567Z,25.07
2017-12-31T02:17:24.968Z,21.53
2017-12-31T02:19:52.538Z,18.80
2017-12-31T02:22:20.226Z,25.40
2017-12-31T02:24:47.808Z,17.97
2017-12-31T02:27:16.477Z,26.83
2017-12-31T02:29:44.162Z,29.03
2017-12-31T02:32:12.523Z,26.00
2017-12-31T02:34:40.133Z,21.87
2017-12-31T02:37:07.709Z,20.47
2017-12-31T02:39:35.791Z,16.57
2017-12-31T02:42:03.381Z,30.73
2017-12-31T02:44:31.152Z,27.17
2017-12-31T02:46:59.524Z,23.73
2017-12-31T02:49:27.102Z,24.80
2017-12-31T02:51:55.946Z,27.73
2017-12-31T02:54:23.520Z,30.07
2017-12-31T02:56:52.609Z,29.20
2017-12-31T02:59:20.233Z,27.43
2017-12-31T03:01:47.822Z,27.97
2017-12-31T03:04:15.437Z,16.87
2017-12-31T03:06:43.019Z,26.97
2017-12-31T03:09:11.012Z,23.13
2017-12-31T03:11:38.592Z,42.30
2017-12-31T03:14:06.166Z,21.90
2017-12-31T03:16:34.573Z,21.27
2017-12-31T03:19:02.297Z,24.07
2017-12-31T03:21:30.120Z,19.90
2017-12-31T03:23:57.885Z,20.97
2017-12-31T03:26:25.465Z,24.67
2017-12-31T03:28:53.080Z,24.37
2017-12-31T03:31:20.653Z,24.53
2017-12-31T03:33:48.300Z,35.80
2017-12-31T03:36:15.908Z,30.87
2017-12-31T03:38:43.574Z,13.03
2017-12-31T03:41:11.151Z,24.30
2017-12-31T03:43:38.719Z,22.10
2017-12-31T03:46:07.090Z,20.67
2017-12-31T03:48:34.657Z,30.77
2017-12-31T03:51:03.030Z,28.77
2017-12-31T03:53:30.612Z,25.23
2017-12-31T03:55:59.077Z,32.73
2017-12-31T03:58:27.432Z,39.40
2017-12-31T04:00:57.021Z,29.37
2017-12-31T04:03:24.585Z,27.70
2017-12-31T04:05:52.160Z,26.97
2017-12-31T04:08:19.781Z,32.70
2017-12-31T04:10:47.361Z,30.63
2017-12-31T04:13:15.276Z,33.97
2017-12-31T04:15:42.852Z,26.30
2017-12-31T04:18:10.433Z,31.67
2017-12-31T04:20:38.048Z,23.37
2017-12-31T04:23:06.376Z,32.57
2017-12-31T04:25:33.981Z,17.13
2017-12-31T04:28:01.561Z,34.13
2017-12-31T04:30:29.196Z,36.43
2017-12-31T04:32:56.764Z,26.33
2017-12-31T04:35:24.700Z,26.93
2017-12-31T04:37:52.296Z,31.40
2017-12-31T04:40:19.872Z,54.33
2017-12-31T04:42:47.499Z,27.43
2017-12-31T04:45:16.980Z,32.17
2017-12-31T04:47:44.602Z,36.57
2017-12-31T04:50:12.180Z,31.17
2017-12-31T04:52:39.810Z,25.37
2017-12-31T04:55:08.154Z,35.53
2017-12-31T04:57:36.096Z,35.90
2017-12-31T05:00:03.674Z,30.97
2017-12-31T05:02:31.257Z,31.03
2017-12-31T05:04:58.962Z,29.80
2017-12-31T05:07:26.549Z,31.07
2017-12-31T05:09:54.251Z,36.77
2017-12-31T05:12:22.604Z,38.20
2017-12-31T05:14:51.246Z,25.47
2017-12-31T05:17:18.850Z,29.73
2017-12-31T05:19:46.434Z,33.30
2017-12-31T05:22:14.016Z,38.40
2017-12-31T05:24:41.595Z,28.67
2017-12-31T05:27:09.212Z,39.30
2017-12-31T05:29:36.782Z,30.33
2017-12-31T05:32:05.282Z,42.37
2017-12-31T05:34:32.860Z,31.40
2017-12-31T05:37:01.373Z,23.17
2017-12-31T05:39:29.060Z,28.37
2017-12-31T05:41:57.402Z,24.87
2017-12-31T05:44:25.008Z,24.53
2017-12-31T05:46:53.476Z,44.57
2017-12-31T05:49:21.869Z,30.50
2017-12-31T05:51:49.462Z,22.17
2017-12-31T05:54:17.081Z,36.13
2017-12-31T05:56:45.421Z,30.53
2017-12-31T05:59:13.385Z,26.87
2017-12-31T06:01:40.963Z,32.67
2017-12-31T06:04:08.537Z,37.93
2017-12-31T06:06:36.915Z,30.10
2017-12-31T06:09:04.493Z,47.57
2017-12-31T06:11:32.873Z,28.57
2017-12-31T06:14:00.452Z,32.37
2017-12-31T06:16:28.439Z,44.57
2017-12-31T06:18:56.017Z,22.27
2017-12-31T06:21:23.594Z,31.13
2017-12-31T06:23:51.216Z,37.70
2017-12-31T06:26:18.789Z,38.10
2017-12-31T06:28:46.406Z,22.63
2017-12-31T06:31:13.984Z,34.80
2017-12-31T06:33:41.601Z,38.37
2017-12-31T06:36:09.194Z,23.97
2017-12-31T06:38:37.237Z,28.90
2017-12-31T06:41:05.570Z,31.00
2017-12-31T06:43:33.152Z,24.50
2017-12-31T06:46:00.779Z,28.63
2017-12-31T06:48:28.362Z,29.03
2017-12-31T06:50:55.985Z,23.33
2017-12-31T06:53:23.551Z,30.93
2017-12-31T06:55:51.173Z,17.10
2017-12-31T06:58:18.745Z,33.13
2017-12-31T07:00:46.796Z,16.30
2017-12-31T07:03:14.366Z,24.10
2017-12-31T07:05:41.941Z,17.80
2017-12-31T07:08:10.321Z,17.53
2017-12-31T07:10:37.901Z,16.90
2017-12-31T07:13:05.532Z,19.67
2017-12-31T07:15:33.867Z,10.63
2017-12-31T07:18:01.828Z,24.20
2017-12-31T07:20:29.396Z,20.87
2017-12-31T07:22:56.976Z,10.03
2017-12-31T07:25:24.588Z,10.47
2017-12-31T07:27:52.209Z,14.50
2017-12-31T07:30:19.842Z,20.27
2017-12-31T07:32:47.425Z,14.40
2017-12-31T07:35:15.038Z,12.83
2017-12-31T07:37:42.610Z,19.00
2017-12-31T07:40:10.581Z,16.07
2017-12-31T07:42:38.152Z,10.80
2017-12-31T07:45:05.728Z,13.23
2017-12-31T07:47:33.338Z,17.40
2017-12-31T07:50:00.915Z,5.77
2017-12-31T07:52:28.525Z,12.40
2017-12-31T07:54:56.136Z,9.20
2017-12-31T07:57:23.741Z,22.57
2017-12-31T07:59:51.336Z,17.40
2017-12-31T08:02:19.470Z,15.67
2017-12-31T08:04:47.044Z,8.97
2017-12-31T08:07:15.385Z,22.77
2017-12-31T08:09:43.181Z,13.83
2017-12-31T08:12:11.525Z,12.63
2017-12-31T08:14:39.133Z,25.47
2017-12-31T08:17:06.700Z,10.57
2017-12-31T08:19:34.737Z,11.40
2017-12-31T08:22:02.305Z,8.83
2017-12-31T08:24:30.643Z,23.30
2017-12-31T08:26:58.244Z,18.73
2017-12-31T08:29:26.632Z,20.63
2017-12-31T08:31:54.264Z,14.77
2017-12-31T08:36:55.677Z,11.70
2017-12-31T08:39:23.257Z,17.03
2017-12-31T08:41:51.132Z,20.43
2017-12-31T08:44:18.710Z,19.57
2017-12-31T08:46:46.293Z,15.17
2017-12-31T08:49:14.680Z,13.53
2017-12-31T08:51:42.266Z,18.30
2017-12-31T08:54:09.881Z,22.07
2017-12-31T08:56:37.464Z,25.53
2017-12-31T08:59:05.108Z,28.20
2017-12-31T09:01:32.685Z,26.23
2017-12-31T09:04:01.473Z,37.83
2017-12-31T09:06:29.229Z,22.90
2017-12-31T09:08:57.581Z,19.60
2017-12-31T09:11:25.377Z,20.00
2017-12-31T09:13:53.721Z,20.40
2017-12-31T09:16:21.353Z,24.83
2017-12-31T09:18:48.929Z,15.87
2017-12-31T09:21:16.992Z,9.40
2017-12-31T09:23:44.582Z,15.83
2017-12-31T09:26:12.150Z,13.50
2017-12-31T09:28:39.795Z,12.67
2017-12-31T09:31:07.389Z,11.87
2017-12-31T09:33:34.996Z,5.13
2017-12-31T09:36:02.565Z,9.47
2017-12-31T09:38:30.442Z,1.53
2017-12-31T09:40:58.024Z,2.43
2017-12-31T09:43:25.849Z,3.20
2017-12-31T09:45:53.586Z,2.93
2017-12-31T09:48:21.161Z,10.30
2017-12-31T09:50:48.954Z,2.70
2017-12-31T09:53:16.555Z,3.37
2017-12-31T09:55:45.508Z,5.93
2017-12-31T09:58:13.105Z,5.63
2017-12-31T10:00:40.741Z,6.60
2017-12-31T10:03:08.359Z,3.40
2017-12-31T10:05:35.962Z,5.47
2017-12-31T10:08:03.697Z,3.33
2017-12-31T10:10:31.352Z,9.80
2017-12-31T10:12:59.246Z,9.57
2017-12-31T10:15:27.621Z,6.97
2017-12-31T10:17:55.218Z,4.83
2017-12-31T10:20:24.062Z,7.23
2017-12-31T10:22:51.677Z,6.50
2017-12-31T10:25:19.334Z,5.80
2017-12-31T10:27:46.907Z,7.93
2017-12-31T10:30:14.528Z,8.00
2017-12-31T10:35:16.464Z,9.77
2017-12-31T10:37:44.037Z,3.87
2017-12-31T10:40:11.768Z,8.70
2017-12-31T10:42:39.389Z,6.50
2017-12-31T10:45:06.968Z,8.57
2017-12-31T10:47:35.371Z,6.60
2017-12-31T10:50:02.962Z,7.03
2017-12-31T10:52:30.853Z,7.20
2017-12-31T10:54:58.429Z,10.20
2017-12-31T10:57:26.783Z,9.57
2017-12-31T10:59:54.405Z,10.50
2017-12-31T11:02:24.814Z,9.03
2017-12-31T11:04:52.484Z,5.80
2017-12-31T11:07:20.072Z,8.77
2017-12-31T11:09:47.649Z,5.50
2017-12-31T11:12:15.259Z,6.63
2017-12-31T11:14:42.953Z,10.53
2017-12-31T11:17:10.567Z,5.03
2017-12-31T11:19:38.166Z,8.03
2017-12-31T11:22:06.157Z,3.80
2017-12-31T11:24:33.733Z,4.53
2017-12-31T11:27:01.322Z,10.33
2017-12-31T11:29:28.928Z,8.50
2017-12-31T11:31:56.528Z,5.53
2017-12-31T11:34:24.350Z,5.80
2017-12-31T11:36:51.978Z,7.07
2017-12-31T11:39:19.979Z,14.50
2017-12-31T11:41:47.571Z,8.73
2017-12-31T11:44:15.149Z,2.50
2017-12-31T11:46:43.527Z,4.60
2017-12-31T11:49:11.112Z,5.97
2017-12-31T11:51:38.735Z,5.00
2017-12-31T11:54:07.111Z,7.00
2017-12-31T11:56:35.064Z,5.13
2017-12-31T11:59:02.630Z,3.07
2017-12-31T12:01:30.386Z,6.60
2017-12-31T12:03:58.020Z,8.67
2017-12-31T12:06:25.593Z,6.10
2017-12-31T12:08:53.240Z,7.97
2017-12-31T12:11:20.819Z,4.30
2017-12-31T12:13:48.720Z,2.23
2017-12-31T12:16:17.073Z,4.20
2017-12-31T12:18:44.665Z,12.53
2017-12-31T12:21:13.095Z,8.73
2017-12-31T12:23:40.757Z,5.93
2017-12-31T12:26:08.367Z,8.13
2017-12-31T12:28:35.950Z,10.63
2017-12-31T12:31:03.589Z,6.27
2017-12-31T12:33:31.922Z,9.93
2017-12-31T12:35:59.881Z,14.97
2017-12-31T12:38:27.468Z,18.57
2017-12-31T12:40:55.045Z,10.07
2017-12-31T12:43:23.429Z,12.07
2017-12-31T12:45:51.016Z,8.17
2017-12-31T12:48:18.626Z,6.10
2017-12-31T12:50:46.213Z,6.47
2017-12-31T12:53:14.144Z,7.10
2017-12-31T12:55:41.971Z,3.63
2017-12-31T12:58:09.548Z,5.93
2017-12-31T13:00:37.164Z,9.33
2017-12-31T13:03:05.519Z,10.13
2017-12-31T13:05:33.382Z,6.50
2017-12-31T13:08:01.179Z,3.43
2017-12-31T13:10:28.808Z,2.93
2017-12-31T13:12:56.369Z,4.10
2017-12-31T13:15:24.325Z,8.83
2017-12-31T13:17:51.921Z,1.73
2017-12-31T13:20:19.501Z,2.50
2017-12-31T13:22:47.143Z,3.63
2017-12-31T13:25:15.496Z,12.20
2017-12-31T13:27:43.132Z,14.80
2017-12-31T13:30:10.701Z,6.37
2017-12-31T13:32:38.332Z,3.70
2017-12-31T13:35:06.138Z,7.93
2017-12-31T13:37:35.729Z,5.43
2017-12-31T13:40:03.336Z,4.80
2017-12-31T13:42:30.918Z,6.60
2017-12-31T13:44:58.717Z,6.93
2017-12-31T13:47:26.289Z,6.07
2017-12-31T13:49:55.417Z,9.20
2017-12-31T13:52:23.190Z,9.27
2017-12-31T13:54:51.992Z,2.63
2017-12-31T13:57:19.586Z,4.97
2017-12-31T13:59:47.174Z,7.67
2017-12-31T14:02:14.789Z,4.67
2017-12-31T14:04:42.370Z,6.10
2017-12-31T14:07:09.994Z,9.87
2017-12-31T14:09:37.574Z,15.30
2017-12-31T14:12:05.492Z,5.90
2017-12-31T14:14:33.837Z,8.80
2017-12-31T14:17:01.734Z,6.93
2017-12-31T14:19:29.346Z,1.83
2017-12-31T14:21:56.929Z,6.90
2017-12-31T14:24:24.554Z,5.90
2017-12-31T14:26:52.134Z,10.30
2017-12-31T14:29:20.034Z,4.17
2017-12-31T14:31:47.644Z,8.50
2017-12-31T14:34:15.240Z,3.70
2017-12-31T14:36:42.873Z,6.80
2017-12-31T14:39:13.030Z,3.60
2017-12-31T14:41:42.985Z,4.00
2017-12-31T14:44:10.925Z,3.37
2017-12-31T14:46:39.418Z,4.93
2017-12-31T14:49:08.569Z,2.90
2017-12-31T14:51:37.001Z,4.77
2017-12-31T14:54:05.999Z,4.87
2017-12-31T14:56:34.009Z,3.10
2017-12-31T14:59:02.121Z,5.67
2017-12-31T15:01:31.533Z,5.40
2017-12-31T15:04:01.420Z,3.97
2017-12-31T15:06:29.394Z,10.10
2017-12-31T15:08:57.295Z,12.80
2017-12-31T15:11:25.065Z,4.60
2017-12-31T15:13:54.063Z,3.77
2017-12-31T15:16:21.747Z,5.53
2017-12-31T15:18:49.342Z,7.93
2017-12-31T15:21:17.389Z,5.83
2017-12-31T15:23:44.985Z,6.53
2017-12-31T15:26:12.579Z,7.00
2017-12-31T15:28:40.251Z,9.83
2017-12-31T15:31:08.620Z,9.97
2017-12-31T15:33:36.251Z,8.77
2017-12-31T15:36:03.848Z,5.10
2017-12-31T15:38:31.533Z,4.00
2017-12-31T15:40:59.156Z,9.33
2017-12-31T15:43:27.160Z,5.67
2017-12-31T15:45:54.876Z,7.63
2017-12-31T15:48:23.231Z,6.17
2017-12-31T15:50:50.845Z,7.60
2017-12-31T15:53:18.678Z,8.77
2017-12-31T15:55:47.292Z,4.47
2017-12-31T15:58:14.865Z,7.47
2017-12-31T16:00:42.867Z,12.37
2017-12-31T16:03:10.463Z,9.70
2017-12-31T16:05:38.930Z,8.87
2017-12-31T16:08:09.001Z,5.27
2017-12-31T16:10:36.590Z,21.10
2017-12-31T16:13:06.218Z,5.83
2017-12-31T16:15:33.830Z,9.83
2017-12-31T16:18:01.901Z,13.93
2017-12-31T16:20:29.517Z,9.07
2017-12-31T16:22:57.100Z,6.63
2017-12-31T16:25:24.760Z,7.67
2017-12-31T16:27:52.358Z,11.83
2017-12-31T16:30:21.679Z,7.70
2017-12-31T16:32:49.589Z,3.73
2017-12-31T16:35:17.829Z,8.77
2017-12-31T16:40:19.690Z,12.30
2017-12-31T16:42:47.319Z,5.17
2017-12-31T16:45:15.380Z,5.47
2017-12-31T16:47:43.688Z,7.80
2017-12-31T16:50:11.268Z,3.83
2017-12-31T16:52:39.761Z,5.40
2017-12-31T16:55:07.351Z,14.50
2017-12-31T16:57:35.341Z,12.63
2017-12-31T17:00:02.930Z,8.97
2017-12-31T17:02:31.344Z,15.90
2017-12-31T17:04:59.004Z,11.87
2017-12-31T17:07:26.552Z,9.17
2017-12-31T17:09:54.948Z,11.87
2017-12-31T17:12:22.532Z,8.10
2017-12-31T17:14:50.435Z,9.87
2017-12-31T17:17:18.013Z,18.57
2017-12-31T17:19:46.346Z,13.60
2017-12-31T17:22:13.985Z,6.50
2017-12-31T17:24:41.565Z,15.20
2017-12-31T17:27:09.184Z,16.53
2017-12-31T17:29:36.793Z,10.00
2017-12-31T17:32:04.780Z,9.67
2017-12-31T17:34:32.374Z,150.43
2017-12-31T17:37:00.055Z,59.40
2017-12-31T17:39:27.681Z,58.43
2017-12-31T17:41:55.298Z,20.27
2017-12-31T17:44:22.927Z,21.43
2017-12-31T17:46:50.513Z,13.73
2017-12-31T17:49:18.602Z,11.03
2017-12-31T17:51:46.217Z,17.63
2017-12-31T17:54:13.799Z,8.13
2017-12-31T17:56:41.423Z,7.17
2017-12-31T17:59:09.836Z,5.97
2017-12-31T18:01:37.658Z,6.73
2017-12-31T18:04:06.003Z,11.37
2017-12-31T18:06:33.902Z,5.23
2017-12-31T18:09:02.254Z,14.03
2017-12-31T18:11:29.841Z,6.60
2017-12-31T18:13:58.240Z,9.53
2017-12-31T18:16:26.032Z,5.27
2017-12-31T18:18:53.648Z,7.30
2017-12-31T18:21:22.000Z,14.17
2017-12-31T18:23:49.634Z,7.87
2017-12-31T18:26:17.221Z,3.50
2017-12-31T18:28:45.329Z,4.43
2017-12-31T18:31:13.674Z,4.17
2017-12-31T18:33:42.773Z,11.80
2017-12-31T18:36:11.917Z,11.70
2017-12-31T18:38:39.736Z,8.10
2017-12-31T18:41:07.323Z,5.97
2017-12-31T18:43:35.670Z,7.90
2017-12-31T18:46:03.829Z,7.67
2017-12-31T18:48:31.526Z,6.60
2017-12-31T18:50:59.875Z,5.10
2017-12-31T18:53:27.491Z,6.47
2017-12-31T18:55:55.096Z,5.33
2017-12-31T18:58:22.713Z,6.80
2017-12-31T19:00:50.278Z,12.43
2017-12-31T19:03:18.280Z,8.53
2017-12-31T19:05:45.870Z,9.63
2017-12-31T19:08:13.471Z,6.97
2017-12-31T19:10:41.085Z,10.77
2017-12-31T19:13:08.657Z,8.10
2017-12-31T19:15:36.285Z,17.47
2017-12-31T19:18:03.872Z,10.00
2017-12-31T19:20:32.728Z,14.17
2017-12-31T19:23:00.325Z,11.67
2017-12-31T19:25:27.901Z,4.93
2017-12-31T19:27:56.327Z,16.67
2017-12-31T19:30:23.924Z,19.00
2017-12-31T19:32:51.546Z,9.63
2017-12-31T19:35:19.129Z,7.97
2017-12-31T19:37:46.776Z,10.30
2017-12-31T19:40:14.358Z,6.10
2017-12-31T19:42:41.973Z,6.93
2017-12-31T19:45:09.588Z,5.10
2017-12-31T19:47:37.948Z,8.83
2017-12-31T19:50:05.561Z,7.67
2017-12-31T19:52:33.143Z,7.37
2017-12-31T19:55:00.772Z,6.73
2017-12-31T19:57:28.358Z,4.77
2017-12-31T19:59:56.362Z,5.00
2017-12-31T20:02:23.948Z,22.03
2017-12-31T20:04:51.566Z,8.00
2017-12-31T20:07:19.184Z,7.67
2017-12-31T20:09:46.765Z,10.23
2017-12-31T20:12:14.376Z,5.67
2017-12-31T20:14:42.728Z,5.63
2017-12-31T20:17:10.339Z,5.63
2017-12-31T20:19:37.935Z,3.87
2017-12-31T20:22:05.580Z,3.53
2017-12-31T20:24:33.182Z,3.97
2017-12-31T20:27:00.800Z,3.90
2017-12-31T20:29:28.416Z,6.53
2017-12-31T20:31:55.988Z,5.17
2017-12-31T20:34:24.553Z,3.57
2017-12-31T20:36:53.656Z,8.03
2017-12-31T20:39:21.562Z,4.10
2017-12-31T20:41:49.140Z,6.00
2017-12-31T20:44:16.741Z,5.33
2017-12-31T20:46:45.144Z,5.17
2017-12-31T20:49:12.729Z,7.23
2017-12-31T20:51:40.338Z,5.60
2017-12-31T20:54:07.925Z,7.90
2017-12-31T20:56:35.532Z,8.33
2017-12-31T20:59:03.229Z,13.20
2017-12-31T21:01:30.982Z,7.63
2017-12-31T21:03:58.606Z,4.27
2017-12-31T21:06:26.193Z,10.53
2017-12-31T21:08:53.837Z,7.10
2017-12-31T21:11:21.417Z,11.60
2017-12-31T21:13:49.065Z,4.77
2017-12-31T21:16:16.654Z,6.53
2017-12-31T21:18:44.393Z,6.00
2017-12-31T21:21:12.022Z,6.20
2017-12-31T21:23:39.591Z,7.03
2017-12-31T21:26:07.270Z,4.90
2017-12-31T21:28:34.867Z,9.10
2017-12-31T21:31:02.539Z,5.60
2017-12-31T21:33:30.932Z,6.83
2017-12-31T21:35:58.522Z,10.20
2017-12-31T21:38:26.167Z,13.90
2017-12-31T21:40:53.784Z,7.67
2017-12-31T21:43:22.616Z,7.53
2017-12-31T21:45:50.214Z,10.60
2017-12-31T21:48:17.892Z,14.93
2017-12-31T21:50:45.509Z,11.10
2017-12-31T21:53:13.093Z,8.80
2017-12-31T21:55:40.711Z,14.03
2017-12-31T21:58:08.288Z,14.40
2017-12-31T22:00:35.920Z,10.50
2017-12-31T22:03:03.506Z,15.40
2017-12-31T22:05:31.102Z,17.43
2017-12-31T22:08:00.237Z,12.07
2017-12-31T22:10:27.828Z,13.47
2017-12-31T22:12:55.501Z,12.60
2017-12-31T22:15:23.099Z,11.43
2017-12-31T22:17:51.738Z,14.37
2017-12-31T22:20:19.314Z,17.27
2017-12-31T22:22:46.894Z,11.63
2017-12-31T22:25:14.513Z,16.80
2017-12-31T22:27:42.161Z,8.13
2017-12-31T22:30:10.035Z,11.90
2017-12-31T22:32:37.633Z,6.23
2017-12-31T22:35:06.772Z,11.30
2017-12-31T22:37:34.358Z,5.83
2017-12-31T22:40:02.039Z,8.63
2017-12-31T22:42:29.622Z,6.43
2017-12-31T22:44:57.207Z,10.00
2017-12-31T22:47:24.812Z,24.77
2017-12-31T22:49:52.386Z,9.80
2017-12-31T22:52:19.996Z,8.50
2017-12-31T22:54:47.576Z,10.57
2017-12-31T22:57:15.224Z,10.60
2017-12-31T22:59:42.789Z,5.47
2017-12-31T23:02:10.724Z,12.80
2017-12-31T23:04:38.296Z,64.97
2017-12-31T23:07:05.902Z,40.03
2017-12-31T23:09:33.557Z,62.80
2017-12-31T23:12:01.173Z,119.27
2017-12-31T23:14:28.805Z,116.47
2017-12-31T23:16:56.393Z,94.53
2017-12-31T23:19:24.786Z,65.50
2017-12-31T23:21:52.466Z,59.13
2017-12-31T23:24:20.094Z,202.23
2017-12-31T23:26:48.452Z,80.20
2017-12-31T23:29:16.145Z,50.80
2017-12-31T23:31:43.834Z,48.67
2017-12-31T23:34:11.432Z,72.03
2017-12-31T23:36:39.063Z,32.00
2017-12-31T23:39:06.655Z,35.27
2017-12-31T23:41:34.267Z,34.30
2017-12-31T23:44:02.014Z,152.70
2017-12-31T23:46:29.764Z,31.40
2017-12-31T23:48:58.231Z,26.53
2017-12-31T23:51:25.795Z,24.17
2017-12-31T23:53:53.441Z,32.43
2017-12-31T23:56:21.032Z,45.50
2017-12-31T23:58:49.392Z,21.13
